Pacific Beryl — 9V9809 — position and weather

sailwx.info

Track history (hours):
 
Tides and Currents Weather Stations Pressure Air Temp Water Temp Dewpoint Dewpoint Depression Visibility Wind Speed Wind Dir Waves Ship Positions

Pacific Beryl

Last reported at 2017-Nov-12 00:02 UTC. Time now 2017-Nov-24 18:36 UTC.
Position S 30°27' E 031°12'.
Warning: this ship's position is 12 days out of date.

Length 182 m; draft 12.1 m.

Type: Tanker. MMSI: 566366000.

Date/timePositionNaut miles runAvg speedWind from/ knotsBaromVisibWave heightAir tempDewpointWater temp
2017-Nov-12 00:02S 30°27' E 031°12'113.6
2017-Nov-12 00:00S 30°27' E 031°12'713.3
2017-Nov-11 23:30S 30°20' E 031°12'613.0
2017-Nov-11 23:00S 30°14' E 031°12'612.3
2017-Nov-11 22:31S 30°08' E 031°12'612.4
2017-Nov-11 22:01S 30°01' E 031°12'612.3
2017-Nov-11 21:31S 29°55' E 031°12'5 9.6
2017-Nov-11 21:00S 29°51' E 031°08'4 7.5
2017-Nov-11 20:31S 29°51' E 031°04'3 4.9
2017-Nov-11 19:58S 29°53' E 031°02'0 0.0
2017-Nov-11 19:28S 29°53' E 031°02'0 0.0
2017-Nov-11 18:55S 29°53' E 031°02'0 0.0
2017-Nov-11 18:28S 29°53' E 031°02'0 0.0
2017-Nov-11 17:58S 29°53' E 031°02'0 0.0
2017-Nov-11 17:28S 29°53' E 031°02'0 0.0
2017-Nov-11 16:58S 29°53' E 031°02'0 0.0
2017-Nov-11 16:25S 29°53' E 031°02'0 0.0
2017-Nov-11 15:58S 29°53' E 031°02'0 0.0
2017-Nov-11 15:25S 29°53' E 031°02'0 0.0
2017-Nov-11 14:58S 29°53' E 031°02'0 0.0
2017-Nov-11 14:28S 29°53' E 031°02'0 0.0
2017-Nov-11 13:59S 29°53' E 031°02'0 0.3
2017-Nov-11 13:30S 29°53' E 031°02'3 5.3
2017-Nov-11 13:00S 29°51' E 031°04'4 7.5
2017-Nov-11 12:30S 29°48' E 031°07'1 1.7
2017-Nov-11 12:00S 29°48' E 031°08'2 3.3
2017-Nov-11 11:30S 29°49' E 031°10'3 6.5
2017-Nov-11 11:00S 29°50' E 031°13'3 5.2
2017-Nov-11 10:30S 29°52' E 031°16'0 0.6
2017-Nov-11 10:00S 29°52' E 031°16'0 0.8
2017-Nov-11 09:30S 29°51' E 031°16'0 0.7
2017-Nov-11 09:00S 29°51' E 031°16'0 0.6
2017-Nov-11 08:30S 29°51' E 031°17'0 0.5
2017-Nov-11 08:00S 29°51' E 031°17'0 0.6
2017-Nov-11 07:30S 29°51' E 031°17'0 0.7
2017-Nov-11 07:00S 29°51' E 031°17'2 4.2
2017-Nov-11 06:30S 29°52' E 031°15'2 3.9
2017-Nov-11 06:00S 29°53' E 031°13'0 0.3
2017-Nov-11 05:31S 29°53' E 031°13'1 1.1
2017-Nov-11 05:01S 29°53' E 031°13'1 1.1
2017-Nov-11 04:30S 29°52' E 031°14'0 0.8
2017-Nov-11 04:00S 29°52' E 031°14'0 0.5
2017-Nov-11 03:30S 29°52' E 031°14'0 0.6
2017-Nov-11 03:00S 29°52' E 031°15'1 0.1
2017-Nov-10 19:32S 29°52' E 031°14'0 2.5
2017-Nov-10 19:31S 29°52' E 031°14'1 2.3
2017-Nov-10 19:00S 29°51' E 031°13'2 3.7
2017-Nov-10 18:30S 29°50' E 031°15'2 4.3
2017-Nov-10 18:00S 29°50' E 031°17'2 4.0
2017-Nov-10 17:31S 29°52' E 031°19'1 1.8
2017-Nov-10 17:00S 29°52' E 031°18'1 1.7
2017-Nov-10 16:30S 29°51' E 031°17'1 1.6
2017-Nov-10 16:00S 29°51' E 031°16'1 2.1
2017-Nov-10 15:30S 29°50' E 031°15'2 3.2
2017-Nov-10 15:00S 29°50' E 031°13'1 2.0
2017-Nov-10 14:31S 29°50' E 031°12'1 2.0
2017-Nov-10 14:00S 29°50' E 031°11'1 1.9
2017-Nov-10 13:30S 29°50' E 031°10'1 2.3
2017-Nov-10 13:00S 29°50' E 031°09'2 4.1
2017-Nov-10 12:26S 29°51' E 031°06'1 2.0
2017-Nov-10 12:00S 29°51' E 031°05'0 0.8
2017-Nov-10 11:30S 29°50' E 031°05'0 0.7
2017-Nov-10 11:00S 29°50' E 031°06'1 1.4
2017-Nov-10 10:30S 29°49' E 031°06'1 1.5
2017-Nov-10 10:00S 29°50' E 031°06'3 6.2
2017-Nov-10 09:30S 29°49' E 031°10'2 4.7
2017-Nov-10 09:00S 29°49' E 031°13'5 9.4
2017-Nov-10 08:30S 29°48' E 031°18'611.4
2017-Nov-10 08:00S 29°47' E 031°24'611.6
2017-Nov-10 07:30S 29°45' E 031°31'611.7
2017-Nov-10 07:01S 29°43' E 031°37'913.0
2017-Nov-10 06:20S 29°41' E 031°47'514.0
2017-Nov-10 06:00S 29°40' E 031°52'713.9
2017-Nov-10 05:30S 29°39' E 032°00'  
Track history (hours):
 
Tides and Currents Weather Stations Pressure Air Temp Water Temp Dewpoint Dewpoint Depression Visibility Wind Speed Wind Dir Waves Ship Positions

Pacific Beryl

Last reported at 2017-Nov-12 00:02 UTC. Time now 2017-Nov-24 18:36 UTC.
Position S 30°27' E 031°12'.
Warning: this ship's position is 12 days out of date.

Length 182 m; draft 12.1 m.

Type: Tanker. MMSI: 566366000.

Date/timePositionNaut miles runAvg speedWind from/ knotsBaromVisibWave heightAir tempDewpointWater temp
2017-Nov-12 00:02S 30°27' E 031°12'113.6
2017-Nov-12 00:00S 30°27' E 031°12'713.3
2017-Nov-11 23:30S 30°20' E 031°12'613.0
2017-Nov-11 23:00S 30°14' E 031°12'612.3
2017-Nov-11 22:31S 30°08' E 031°12'612.4
2017-Nov-11 22:01S 30°01' E 031°12'612.3
2017-Nov-11 21:31S 29°55' E 031°12'5 9.6
2017-Nov-11 21:00S 29°51' E 031°08'4 7.5
2017-Nov-11 20:31S 29°51' E 031°04'3 4.9
2017-Nov-11 19:58S 29°53' E 031°02'0 0.0
2017-Nov-11 19:28S 29°53' E 031°02'0 0.0
2017-Nov-11 18:55S 29°53' E 031°02'0 0.0
2017-Nov-11 18:28S 29°53' E 031°02'0 0.0
2017-Nov-11 17:58S 29°53' E 031°02'0 0.0
2017-Nov-11 17:28S 29°53' E 031°02'0 0.0
2017-Nov-11 16:58S 29°53' E 031°02'0 0.0
2017-Nov-11 16:25S 29°53' E 031°02'0 0.0
2017-Nov-11 15:58S 29°53' E 031°02'0 0.0
2017-Nov-11 15:25S 29°53' E 031°02'0 0.0
2017-Nov-11 14:58S 29°53' E 031°02'0 0.0
2017-Nov-11 14:28S 29°53' E 031°02'0 0.0
2017-Nov-11 13:59S 29°53' E 031°02'0 0.3
2017-Nov-11 13:30S 29°53' E 031°02'3 5.3
2017-Nov-11 13:00S 29°51' E 031°04'4 7.5
2017-Nov-11 12:30S 29°48' E 031°07'1 1.7
2017-Nov-11 12:00S 29°48' E 031°08'2 3.3
2017-Nov-11 11:30S 29°49' E 031°10'3 6.5
2017-Nov-11 11:00S 29°50' E 031°13'3 5.2
2017-Nov-11 10:30S 29°52' E 031°16'0 0.6
2017-Nov-11 10:00S 29°52' E 031°16'0 0.8
2017-Nov-11 09:30S 29°51' E 031°16'0 0.7
2017-Nov-11 09:00S 29°51' E 031°16'0 0.6
2017-Nov-11 08:30S 29°51' E 031°17'0 0.5
2017-Nov-11 08:00S 29°51' E 031°17'0 0.6
2017-Nov-11 07:30S 29°51' E 031°17'0 0.7
2017-Nov-11 07:00S 29°51' E 031°17'2 4.2
2017-Nov-11 06:30S 29°52' E 031°15'2 3.9
2017-Nov-11 06:00S 29°53' E 031°13'0 0.3
2017-Nov-11 05:31S 29°53' E 031°13'1 1.1
2017-Nov-11 05:01S 29°53' E 031°13'1 1.1
2017-Nov-11 04:30S 29°52' E 031°14'0 0.8
2017-Nov-11 04:00S 29°52' E 031°14'0 0.5
2017-Nov-11 03:30S 29°52' E 031°14'0 0.6
2017-Nov-11 03:00S 29°52' E 031°15'1 0.1
2017-Nov-10 19:32S 29°52' E 031°14'0 2.5
2017-Nov-10 19:31S 29°52' E 031°14'1 2.3
2017-Nov-10 19:00S 29°51' E 031°13'2 3.7
2017-Nov-10 18:30S 29°50' E 031°15'2 4.3
2017-Nov-10 18:00S 29°50' E 031°17'2 4.0
2017-Nov-10 17:31S 29°52' E 031°19'1 1.8
2017-Nov-10 17:00S 29°52' E 031°18'1 1.7
2017-Nov-10 16:30S 29°51' E 031°17'1 1.6
2017-Nov-10 16:00S 29°51' E 031°16'1 2.1
2017-Nov-10 15:30S 29°50' E 031°15'2 3.2
2017-Nov-10 15:00S 29°50' E 031°13'1 2.0
2017-Nov-10 14:31S 29°50' E 031°12'1 2.0
2017-Nov-10 14:00S 29°50' E 031°11'1 1.9
2017-Nov-10 13:30S 29°50' E 031°10'1 2.3
2017-Nov-10 13:00S 29°50' E 031°09'2 4.1
2017-Nov-10 12:26S 29°51' E 031°06'1 2.0
2017-Nov-10 12:00S 29°51' E 031°05'0 0.8
2017-Nov-10 11:30S 29°50' E 031°05'0 0.7
2017-Nov-10 11:00S 29°50' E 031°06'1 1.4
2017-Nov-10 10:30S 29°49' E 031°06'1 1.5
2017-Nov-10 10:00S 29°50' E 031°06'3 6.2
2017-Nov-10 09:30S 29°49' E 031°10'2 4.7
2017-Nov-10 09:00S 29°49' E 031°13'5 9.4
2017-Nov-10 08:30S 29°48' E 031°18'611.4
2017-Nov-10 08:00S 29°47' E 031°24'611.6
2017-Nov-10 07:30S 29°45' E 031°31'611.7
2017-Nov-10 07:01S 29°43' E 031°37'913.0
2017-Nov-10 06:20S 29°41' E 031°47'514.0
2017-Nov-10 06:00S 29°40' E 031°52'713.9
2017-Nov-10 05:30S 29°39' E 032°00'  

Dump ship's entire track history